Terminal Aerodrome Forecast
Issued by NWS Knoxville/Tri Cities, TN

Home | Current Version | Previous Version | Text Only | Print | Product List | Glossary On
Versions: 1 2 3 4 5 6 7 8 9 10 11 12 13 14 15 16 17 18 19
000
FTUS44 KMRX 300006 AAA
TAFTYS
TAF AMD
KTYS 300006Z 3000/3024 05005KT P6SM VCTS SCT060CB SCT130 BKN250
      TEMPO 3000/3001 VRB10G20KT 2SM +TSRA BR BKN020CB BKN040
     FM300300 23004KT P6SM BKN040 OVC250
     FM300800 VRB03KT 5SM BR BKN070
     FM301000 22003KT P6SM BKN025 OVC035
      TEMPO 3010/3013 2SM BR BKN015
     FM301400 23005KT P6SM BKN025
     FM301600 24009KT P6SM BKN035
     FM301800 25006KT P6SM SCT050 SCT250=

USA.gov is the U.S. government's official web portal to all federal, state and local government web resources and services.